createdAt,value
2019-02-19T00:25:06.771Z,6.46
2019-02-19T00:27:35.268Z,6.49
2019-02-19T00:30:04.165Z,6.52
2019-02-19T00:32:32.564Z,6.35
2019-02-19T00:35:01.268Z,6.34
2019-02-19T00:37:29.950Z,6.38
2019-02-19T00:39:58.400Z,6.37
2019-02-19T00:42:27.115Z,6.30
2019-02-19T00:44:55.559Z,6.37
2019-02-19T00:47:23.933Z,6.40
2019-02-19T00:49:52.394Z,6.30
2019-02-19T00:52:20.895Z,6.36
2019-02-19T00:54:49.288Z,6.36
2019-02-19T00:57:17.907Z,6.39
2019-02-19T00:59:46.372Z,6.31
2019-02-19T01:02:14.845Z,6.33
2019-02-19T01:04:43.238Z,6.32
2019-02-19T01:07:11.626Z,6.31
2019-02-19T01:09:40.082Z,6.25
2019-02-19T01:12:08.523Z,6.26
2019-02-19T01:14:37.052Z,6.18
2019-02-19T01:17:05.442Z,6.23
2019-02-19T01:19:33.905Z,6.20
2019-02-19T01:22:02.304Z,6.18
2019-02-19T01:24:30.738Z,6.19
2019-02-19T01:26:59.520Z,6.17
2019-02-19T01:29:28.224Z,6.16
2019-02-19T01:31:56.616Z,6.12
2019-02-19T01:34:24.805Z,6.13
2019-02-19T01:36:53.217Z,6.09
2019-02-19T01:39:21.655Z,6.12
2019-02-19T01:41:50.069Z,6.12
2019-02-19T01:44:18.503Z,6.15
2019-02-19T01:46:46.951Z,6.09
2019-02-19T01:49:15.580Z,6.08
2019-02-19T01:51:44.016Z,6.09
2019-02-19T01:54:12.767Z,6.07
2019-02-19T01:56:41.126Z,6.06
2019-02-19T01:59:09.892Z,6.05
2019-02-19T02:01:38.419Z,6.04
2019-02-19T02:04:06.858Z,6.05
2019-02-19T02:06:35.378Z,5.90
2019-02-19T02:09:04.930Z,5.85
2019-02-19T02:11:33.379Z,5.79
2019-02-19T02:14:01.907Z,5.73
2019-02-19T02:16:30.493Z,5.76
2019-02-19T02:18:59.173Z,5.76
2019-02-19T02:21:27.639Z,5.72
2019-02-19T02:23:56.250Z,5.68
2019-02-19T02:26:24.654Z,5.74
2019-02-19T02:28:53.155Z,5.75
2019-02-19T02:31:21.643Z,5.75
2019-02-19T02:33:50.355Z,5.75
2019-02-19T02:36:18.926Z,5.74
2019-02-19T02:38:47.302Z,5.66
2019-02-19T02:41:16.003Z,5.65
2019-02-19T02:43:44.436Z,5.69
2019-02-19T02:46:12.916Z,5.58
2019-02-19T02:48:41.282Z,5.62
2019-02-19T02:51:09.712Z,5.61
2019-02-19T02:53:38.183Z,5.64
2019-02-19T02:56:06.616Z,5.72
2019-02-19T02:58:35.018Z,5.68
2019-02-19T03:01:03.404Z,5.68
2019-02-19T03:03:31.941Z,5.73
2019-02-19T03:06:02.811Z,5.60
2019-02-19T03:08:31.242Z,5.63
2019-02-19T03:10:59.633Z,5.64
2019-02-19T03:13:28.005Z,5.61
2019-02-19T03:16:02.532Z,5.60
2019-02-19T03:18:26.902Z,5.65
2019-02-19T03:20:55.301Z,5.59
2019-02-19T03:23:23.664Z,5.54
2019-02-19T03:25:52.154Z,5.63
2019-02-19T03:28:20.589Z,5.58
2019-02-19T03:30:48.976Z,5.60
2019-02-19T03:33:17.385Z,5.53
2019-02-19T03:35:45.747Z,5.51
2019-02-19T03:38:14.195Z,5.50
2019-02-19T03:40:42.622Z,5.50
2019-02-19T03:43:11.057Z,5.48
2019-02-19T03:45:39.566Z,5.42
2019-02-19T03:48:08.026Z,5.46
2019-02-19T03:50:36.470Z,5.44
2019-02-19T03:53:05.050Z,5.49
2019-02-19T03:55:33.503Z,5.46
2019-02-19T03:58:02.303Z,5.47
2019-02-19T04:00:30.784Z,5.50
2019-02-19T04:02:59.231Z,5.50
2019-02-19T04:05:27.681Z,5.44
2019-02-19T04:07:56.065Z,5.41
2019-02-19T04:10:24.425Z,5.35
2019-02-19T04:12:52.956Z,5.36
2019-02-19T04:15:21.488Z,5.37
2019-02-19T04:17:49.957Z,5.37
2019-02-19T04:20:18.333Z,5.39
2019-02-19T04:22:46.731Z,5.38
2019-02-19T04:25:15.137Z,5.30
2019-02-19T04:27:43.523Z,5.35
2019-02-19T04:30:12.036Z,5.31
2019-02-19T04:32:40.453Z,5.27
2019-02-19T04:35:09.258Z,5.24
2019-02-19T04:37:37.789Z,5.26
2019-02-19T04:40:08.007Z,5.32
2019-02-19T04:42:36.434Z,5.35
2019-02-19T04:45:05.658Z,5.31
2019-02-19T04:47:34.064Z,5.31
2019-02-19T04:50:02.446Z,5.27
2019-02-19T04:52:31.154Z,5.22
2019-02-19T04:54:59.582Z,5.24
2019-02-19T04:57:28.058Z,5.24
2019-02-19T04:59:56.832Z,5.24
2019-02-19T05:02:25.239Z,5.22
2019-02-19T05:04:53.602Z,5.20
2019-02-19T05:07:22.034Z,5.16
2019-02-19T05:09:50.555Z,5.07
2019-02-19T05:12:18.918Z,5.03
2019-02-19T05:14:47.503Z,5.04
2019-02-19T05:17:16.439Z,5.06
2019-02-19T05:19:44.970Z,5.08
2019-02-19T05:22:13.405Z,4.97
2019-02-19T05:24:41.857Z,4.95
2019-02-19T05:27:10.405Z,4.95
2019-02-19T05:29:38.803Z,4.92
2019-02-19T05:32:07.259Z,4.98
2019-02-19T05:34:35.643Z,4.94
2019-02-19T05:37:04.086Z,4.95
2019-02-19T05:39:32.532Z,4.94
2019-02-19T05:42:00.936Z,4.91
2019-02-19T05:44:29.617Z,4.97
2019-02-19T05:46:58.430Z,5.00
2019-02-19T05:49:26.934Z,5.00
2019-02-19T05:51:55.470Z,5.06
2019-02-19T05:54:23.951Z,5.06
2019-02-19T05:56:52.410Z,5.06
2019-02-19T05:59:20.825Z,5.05
2019-02-19T06:01:49.635Z,5.06
2019-02-19T06:04:18.302Z,5.05
2019-02-19T06:06:46.689Z,5.07
2019-02-19T06:09:15.418Z,5.13
2019-02-19T06:11:43.886Z,5.12
2019-02-19T06:14:12.336Z,5.12
2019-02-19T06:16:40.966Z,5.10
2019-02-19T06:19:09.400Z,5.12
2019-02-19T06:21:38.002Z,5.14
2019-02-19T06:24:06.616Z,5.11
2019-02-19T06:26:35.029Z,5.06
2019-02-19T06:29:03.625Z,5.16
2019-02-19T06:31:32.018Z,5.19
2019-02-19T06:34:00.420Z,5.19
2019-02-19T06:36:29.151Z,5.14
2019-02-19T06:38:57.583Z,5.15
2019-02-19T06:41:26.073Z,5.14
2019-02-19T06:43:54.507Z,5.20
2019-02-19T06:46:22.913Z,5.27
2019-02-19T06:48:51.298Z,5.26
2019-02-19T06:51:19.773Z,5.29
2019-02-19T06:53:48.236Z,5.28
2019-02-19T06:56:16.691Z,5.29
2019-02-19T06:58:45.055Z,5.31
2019-02-19T07:01:13.804Z,5.36
2019-02-19T07:03:43.876Z,5.36
2019-02-19T07:06:12.328Z,5.41
2019-02-19T07:08:40.764Z,5.38
2019-02-19T07:11:09.386Z,5.40
2019-02-19T07:13:37.795Z,5.35
2019-02-19T07:16:06.237Z,5.51
2019-02-19T07:18:34.757Z,5.57
2019-02-19T07:21:03.153Z,5.69
2019-02-19T07:23:31.814Z,5.71
2019-02-19T07:26:00.279Z,5.71
2019-02-19T07:28:28.764Z,5.81
2019-02-19T07:30:58.768Z,5.82
2019-02-19T07:33:27.167Z,5.93
2019-02-19T07:35:55.672Z,5.99
2019-02-19T07:38:24.146Z,6.06
2019-02-19T07:40:52.667Z,6.15
2019-02-19T07:43:21.106Z,6.21
2019-02-19T07:45:49.857Z,6.18
2019-02-19T07:48:18.354Z,6.24
2019-02-19T07:50:46.838Z,6.39
2019-02-19T07:53:15.221Z,6.40
2019-02-19T07:55:43.690Z,6.49
2019-02-19T07:58:12.137Z,6.47
2019-02-19T08:00:40.624Z,6.50
2019-02-19T08:03:08.995Z,6.60
2019-02-19T08:05:37.460Z,6.72
2019-02-19T08:08:06.072Z,6.78
2019-02-19T08:10:34.525Z,6.78
2019-02-19T08:13:03.031Z,6.86
2019-02-19T08:15:31.509Z,6.91
2019-02-19T08:17:59.951Z,7.06
2019-02-19T08:20:28.422Z,7.13
2019-02-19T08:22:56.776Z,7.23
2019-02-19T08:25:25.333Z,7.32
2019-02-19T08:27:53.986Z,7.45
2019-02-19T08:30:22.438Z,7.52
2019-02-19T08:32:50.968Z,7.69
2019-02-19T08:35:19.455Z,7.78
2019-02-19T08:37:47.963Z,7.88
2019-02-19T08:40:16.444Z,7.97
2019-02-19T08:42:44.808Z,8.07
2019-02-19T08:45:13.211Z,8.09
2019-02-19T08:47:42.852Z,8.14
2019-02-19T08:50:11.535Z,8.14
2019-02-19T08:52:40.042Z,8.09
2019-02-19T08:55:08.513Z,8.19
2019-02-19T08:57:36.864Z,8.19
2019-02-19T09:00:08.449Z,8.23
2019-02-19T09:02:36.960Z,8.42
2019-02-19T09:05:07.112Z,8.50
2019-02-19T09:07:35.561Z,8.53
2019-02-19T09:10:05.885Z,8.64
2019-02-19T09:12:34.265Z,8.63
2019-02-19T09:15:02.757Z,8.59
2019-02-19T09:17:31.157Z,8.48
2019-02-19T09:19:59.699Z,8.56
2019-02-19T09:22:28.508Z,8.60
2019-02-19T09:24:57.277Z,8.51
2019-02-19T09:27:25.858Z,8.57
2019-02-19T09:29:54.226Z,8.63
2019-02-19T09:32:22.713Z,8.64
2019-02-19T09:34:52.665Z,8.60
2019-02-19T09:37:21.183Z,8.64
2019-02-19T09:39:49.991Z,8.70
2019-02-19T09:42:18.479Z,8.72
2019-02-19T09:44:47.002Z,8.71
2019-02-19T09:47:15.507Z,8.68
2019-02-19T09:49:43.940Z,8.68
2019-02-19T09:52:12.351Z,8.70
2019-02-19T09:54:40.968Z,8.75
2019-02-19T09:57:11.063Z,8.92
2019-02-19T09:59:39.612Z,8.91
2019-02-19T10:02:08.171Z,8.83
2019-02-19T10:04:36.528Z,8.84
2019-02-19T10:07:05.062Z,8.90
2019-02-19T10:09:33.515Z,8.97
2019-02-19T10:12:01.970Z,8.95
2019-02-19T10:14:30.553Z,9.11
2019-02-19T10:16:58.969Z,9.19
2019-02-19T10:19:27.400Z,9.08
2019-02-19T10:21:55.883Z,9.09
2019-02-19T10:24:24.302Z,9.17
2019-02-19T10:26:52.746Z,9.25
2019-02-19T10:29:21.206Z,9.42
2019-02-19T10:31:49.665Z,9.47
2019-02-19T10:34:18.121Z,9.30
2019-02-19T10:36:46.660Z,9.38
2019-02-19T10:39:15.068Z,9.26
2019-02-19T10:41:43.539Z,9.17
2019-02-19T10:44:12.010Z,9.02
2019-02-19T10:46:40.432Z,9.08
2019-02-19T10:49:08.834Z,9.09
2019-02-19T10:51:37.203Z,9.11
2019-02-19T10:54:05.754Z,9.25
2019-02-19T10:56:34.312Z,9.22
2019-02-19T10:59:02.716Z,9.20
2019-02-19T11:01:31.247Z,9.29
2019-02-19T11:03:59.681Z,9.33
2019-02-19T11:06:28.127Z,9.26
2019-02-19T11:08:56.670Z,9.32
2019-02-19T11:11:25.089Z,9.35
2019-02-19T11:13:53.538Z,9.25
2019-02-19T11:16:21.959Z,9.20
2019-02-19T11:18:50.330Z,9.39
2019-02-19T11:21:19.880Z,9.31
2019-02-19T11:23:48.635Z,9.43
2019-02-19T11:26:17.097Z,9.50
2019-02-19T11:28:45.569Z,9.61
2019-02-19T11:31:14.001Z,9.65
2019-02-19T11:33:42.400Z,9.68
2019-02-19T11:36:10.795Z,9.65
2019-02-19T11:38:39.252Z,9.68
2019-02-19T11:41:07.702Z,9.55
2019-02-19T11:43:36.255Z,9.65
2019-02-19T11:46:04.885Z,9.69
2019-02-19T11:48:36.973Z,9.74
2019-02-19T11:51:03.543Z,9.62
2019-02-19T11:53:31.958Z,9.66
2019-02-19T11:56:00.594Z,9.45
2019-02-19T11:58:29.066Z,9.55
2019-02-19T12:00:57.628Z,9.49
2019-02-19T12:03:26.000Z,9.50
2019-02-19T12:05:54.458Z,9.53
2019-02-19T12:08:22.923Z,9.62
2019-02-19T12:10:51.578Z,9.63
2019-02-19T12:13:20.385Z,9.62
2019-02-19T12:15:48.845Z,9.71
2019-02-19T12:18:17.390Z,9.62
2019-02-19T12:20:46.115Z,9.86
2019-02-19T12:23:14.569Z,9.93
2019-02-19T12:25:43.228Z,10.07
2019-02-19T12:28:11.662Z,10.11
2019-02-19T12:30:40.128Z,10.04
2019-02-19T12:33:08.608Z,10.02
2019-02-19T12:35:36.991Z,10.00
2019-02-19T12:38:05.404Z,9.88
2019-02-19T12:40:33.881Z,10.01
2019-02-19T12:43:02.254Z,10.00
2019-02-19T12:45:30.663Z,10.21
2019-02-19T12:47:59.220Z,10.24
2019-02-19T12:50:27.764Z,10.03
2019-02-19T12:52:56.158Z,10.21
2019-02-19T12:55:24.652Z,10.08
2019-02-19T12:57:53.160Z,10.17
2019-02-19T13:00:21.625Z,10.17
2019-02-19T13:02:50.153Z,10.12
2019-02-19T13:05:18.550Z,10.20
2019-02-19T13:07:47.214Z,10.03
2019-02-19T13:10:15.570Z,9.92
2019-02-19T13:12:44.058Z,9.82
2019-02-19T13:15:18.337Z,9.94
2019-02-19T13:17:47.231Z,10.15
2019-02-19T13:20:15.683Z,10.14
2019-02-19T13:22:44.222Z,10.04
2019-02-19T13:25:12.852Z,10.09
2019-02-19T13:27:41.326Z,10.16
2019-02-19T13:30:18.242Z,10.00
2019-02-19T13:32:46.730Z,10.08
2019-02-19T13:35:15.264Z,10.00
2019-02-19T13:37:43.935Z,10.09
2019-02-19T13:40:21.571Z,9.99
2019-02-19T13:42:49.965Z,9.95
2019-02-19T13:45:18.399Z,9.95
2019-02-19T13:47:47.233Z,9.87
2019-02-19T13:50:18.231Z,9.87
2019-02-19T13:52:51.042Z,9.83
2019-02-19T13:55:21.118Z,9.88
2019-02-19T13:57:49.561Z,9.78
2019-02-19T14:00:22.450Z,9.86
2019-02-19T14:02:50.843Z,9.78
2019-02-19T14:05:19.277Z,9.89
2019-02-19T14:07:47.815Z,9.87
2019-02-19T14:10:16.215Z,10.00
2019-02-19T14:12:44.671Z,10.08
2019-02-19T14:15:29.924Z,10.02
2019-02-19T14:17:59.043Z,9.93
2019-02-19T14:20:37.697Z,9.98
2019-02-19T14:23:19.534Z,10.10
2019-02-19T14:25:52.302Z,9.90
2019-02-19T14:28:22.346Z,10.02
2019-02-19T14:30:55.388Z,10.11
2019-02-19T14:33:48.954Z,10.06
2019-02-19T14:36:21.183Z,10.07
2019-02-19T14:39:07.522Z,10.11
2019-02-19T14:41:55.461Z,10.13
2019-02-19T14:44:25.479Z,10.11
2019-02-19T14:46:58.554Z,10.00
2019-02-19T14:49:37.459Z,10.03
2019-02-19T14:52:06.786Z,10.02
2019-02-19T14:54:39.326Z,9.95
2019-02-19T14:57:09.499Z,9.93
2019-02-19T14:59:42.559Z,9.79
2019-02-19T15:02:24.682Z,9.74
2019-02-19T15:05:06.737Z,9.74
2019-02-19T15:07:39.764Z,9.75
2019-02-19T15:10:29.043Z,9.79
2019-02-19T15:13:05.044Z,9.76
2019-02-19T15:15:35.309Z,9.80
2019-02-19T15:18:14.503Z,9.70
2019-02-19T15:21:00.519Z,9.71
2019-02-19T15:23:42.204Z,9.75
2019-02-19T15:26:12.364Z,9.70
2019-02-19T15:28:57.296Z,9.71
2019-02-19T15:31:27.481Z,9.66
2019-02-19T15:34:00.254Z,9.65
2019-02-19T15:36:39.318Z,9.67
2019-02-19T15:39:09.558Z,9.68
2019-02-19T15:41:58.033Z,9.62
2019-02-19T15:44:28.030Z,9.52
2019-02-19T15:47:03.659Z,9.56
2019-02-19T15:49:33.675Z,9.54
2019-02-19T15:52:03.790Z,9.45
2019-02-19T15:54:33.813Z,9.42
2019-02-19T15:57:09.548Z,9.45
2019-02-19T15:59:42.597Z,9.47
2019-02-19T16:02:21.338Z,9.48
2019-02-19T16:04:51.415Z,9.44
2019-02-19T16:07:35.990Z,9.48
2019-02-19T16:10:21.831Z,9.45
2019-02-19T16:12:54.930Z,9.47
2019-02-19T16:15:28.147Z,9.38
2019-02-19T16:18:01.310Z,9.39
2019-02-19T16:20:34.350Z,9.41
2019-02-19T16:23:16.113Z,9.40
2019-02-19T16:26:03.814Z,9.40
2019-02-19T16:28:37.056Z,9.44
2019-02-19T16:31:23.615Z,9.35
2019-02-19T16:33:53.708Z,9.31
2019-02-19T16:36:29.479Z,9.31
2019-02-19T16:39:05.253Z,9.31
2019-02-19T16:41:38.019Z,9.25
2019-02-19T16:44:27.676Z,9.28
2019-02-19T16:46:57.764Z,9.20
2019-02-19T16:49:28.060Z,9.23
2019-02-19T16:51:58.181Z,9.19
2019-02-19T16:54:28.363Z,9.21
2019-02-19T16:56:58.446Z,9.16
2019-02-19T16:59:44.743Z,9.17
2019-02-19T17:02:14.881Z,9.21
2019-02-19T17:04:44.919Z,9.24
2019-02-19T17:07:17.689Z,9.17
2019-02-19T17:09:50.888Z,9.22
2019-02-19T17:12:23.663Z,9.18
2019-02-19T17:14:53.681Z,9.21
2019-02-19T17:17:23.707Z,9.19
2019-02-19T17:20:05.857Z,9.17
2019-02-19T17:22:44.483Z,9.15
2019-02-19T17:25:17.655Z,9.11
2019-02-19T17:28:05.481Z,9.11
2019-02-19T17:30:51.520Z,9.14
2019-02-19T17:33:21.533Z,9.14
2019-02-19T17:35:52.524Z,9.10
2019-02-19T17:38:25.726Z,9.14
2019-02-19T17:41:01.404Z,9.17
2019-02-19T17:43:46.118Z,9.18
2019-02-19T17:46:16.258Z,9.16
2019-02-19T17:48:51.996Z,9.15
2019-02-19T17:51:22.058Z,9.16
2019-02-19T17:54:08.703Z,9.11
2019-02-19T17:56:54.703Z,9.12
2019-02-19T17:59:24.989Z,9.11
2019-02-19T18:01:57.838Z,9.08
2019-02-19T18:04:30.355Z,9.05
2019-02-19T18:07:06.150Z,9.03
2019-02-19T18:09:36.297Z,9.01
2019-02-19T18:12:06.426Z,9.01
2019-02-19T18:14:42.315Z,9.01
2019-02-19T18:17:12.354Z,8.97
2019-02-19T18:19:40.727Z,9.00
2019-02-19T18:22:09.080Z,8.97
2019-02-19T18:24:37.577Z,9.00
2019-02-19T18:27:06.038Z,9.09
2019-02-19T18:29:34.423Z,9.10
2019-02-19T18:32:02.888Z,9.00
2019-02-19T18:34:31.297Z,8.97
2019-02-19T18:36:59.719Z,9.01
2019-02-19T18:39:28.282Z,8.93
2019-02-19T18:41:57.582Z,8.92
2019-02-19T18:44:26.030Z,8.90
2019-02-19T18:46:54.560Z,8.94
2019-02-19T18:49:23.088Z,8.92
2019-02-19T18:51:51.964Z,8.97
2019-02-19T18:54:20.394Z,8.97
2019-02-19T18:56:48.862Z,8.96
2019-02-19T18:59:17.388Z,8.97
2019-02-19T19:01:45.832Z,8.91
2019-02-19T19:04:14.268Z,8.95
2019-02-19T19:06:42.849Z,8.93
2019-02-19T19:09:11.294Z,9.00
2019-02-19T19:11:41.955Z,8.90
2019-02-19T19:14:10.185Z,8.92
2019-02-19T19:16:38.574Z,8.98
2019-02-19T19:19:06.958Z,8.98
2019-02-19T19:21:35.426Z,8.97
2019-02-19T19:24:03.910Z,9.00
2019-02-19T19:26:32.658Z,8.97
2019-02-19T19:29:01.026Z,8.97
2019-02-19T19:31:33.411Z,8.93
2019-02-19T19:33:59.731Z,9.00
2019-02-19T19:36:28.194Z,8.95
2019-02-19T19:38:56.601Z,8.96
2019-02-19T19:41:25.205Z,8.95
2019-02-19T19:43:53.695Z,8.84
2019-02-19T19:46:22.158Z,8.81
2019-02-19T19:48:50.581Z,8.74
2019-02-19T19:51:18.942Z,8.62
2019-02-19T19:53:47.442Z,8.43
2019-02-19T19:56:15.882Z,8.05
2019-02-19T19:58:44.346Z,7.98
2019-02-19T20:01:12.710Z,7.82
2019-02-19T20:03:41.256Z,7.63
2019-02-19T20:06:09.778Z,7.56
2019-02-19T20:08:38.491Z,7.44
2019-02-19T20:11:07.333Z,7.35
2019-02-19T20:13:35.922Z,7.35
2019-02-19T20:16:05.261Z,7.22
2019-02-19T20:18:39.073Z,7.24
2019-02-19T20:21:04.364Z,7.15
2019-02-19T20:23:32.811Z,7.23
2019-02-19T20:26:01.304Z,7.23
2019-02-19T20:28:30.443Z,7.11
2019-02-19T20:30:58.840Z,7.11
2019-02-19T20:33:27.195Z,6.92
2019-02-19T20:35:55.968Z,6.89
2019-02-19T20:38:24.470Z,6.88
2019-02-19T20:40:53.035Z,6.99
2019-02-19T20:43:21.628Z,6.95
2019-02-19T20:45:50.140Z,6.98
2019-02-19T20:48:18.615Z,7.01
2019-02-19T20:50:47.116Z,7.07
2019-02-19T20:53:15.576Z,7.10
2019-02-19T20:55:44.090Z,7.02
2019-02-19T20:58:12.615Z,6.98
2019-02-19T21:00:41.100Z,6.95
2019-02-19T21:03:09.575Z,6.91
2019-02-19T21:05:38.131Z,6.93
2019-02-19T21:08:06.540Z,6.92
2019-02-19T21:10:34.946Z,6.96
2019-02-19T21:13:03.416Z,6.93
2019-02-19T21:15:31.818Z,6.94
2019-02-19T21:18:00.264Z,6.86
2019-02-19T21:20:28.722Z,6.96
2019-02-19T21:22:57.129Z,7.00
2019-02-19T21:25:31.079Z,6.96
2019-02-19T21:27:55.788Z,6.86
2019-02-19T21:30:24.157Z,6.91
2019-02-19T21:32:52.583Z,6.90
2019-02-19T21:35:21.059Z,6.90
2019-02-19T21:37:49.565Z,6.97
2019-02-19T21:40:18.039Z,6.94
2019-02-19T21:42:46.497Z,6.85
2019-02-19T21:45:15.569Z,6.78
2019-02-19T21:47:44.057Z,6.73
2019-02-19T21:50:15.553Z,6.77
2019-02-19T21:52:43.698Z,6.75
2019-02-19T21:55:12.928Z,6.71
2019-02-19T21:57:41.372Z,6.65
2019-02-19T22:00:13.778Z,6.62
2019-02-19T22:02:42.496Z,6.70
2019-02-19T22:05:10.892Z,6.69
2019-02-19T22:07:39.352Z,6.63
2019-02-19T22:10:12.505Z,6.72
2019-02-19T22:12:41.312Z,6.67
2019-02-19T22:15:11.721Z,6.60
2019-02-19T22:17:40.165Z,6.56
2019-02-19T22:20:34.311Z,6.51
2019-02-19T22:23:02.812Z,6.57
2019-02-19T22:25:31.270Z,6.57
2019-02-19T22:28:00.036Z,6.54
2019-02-19T22:30:28.612Z,6.61
2019-02-19T22:32:57.068Z,6.55
2019-02-19T22:35:25.523Z,6.51
2019-02-19T22:37:53.972Z,6.46
2019-02-19T22:40:22.440Z,6.55
2019-02-19T22:42:50.913Z,6.53
2019-02-19T22:45:19.358Z,6.60
2019-02-19T22:47:53.406Z,6.56
2019-02-19T22:50:17.989Z,6.52
2019-02-19T22:52:46.477Z,6.59
2019-02-19T22:55:22.314Z,6.50
2019-02-19T22:57:50.781Z,6.47
2019-02-19T23:00:32.527Z,6.48
2019-02-19T23:03:00.934Z,6.44
2019-02-19T23:05:29.319Z,6.46
2019-02-19T23:07:57.704Z,6.42
2019-02-19T23:10:26.150Z,6.42
2019-02-19T23:12:54.603Z,6.43
2019-02-19T23:15:23.294Z,6.50
2019-02-19T23:17:51.675Z,6.55
2019-02-19T23:20:20.058Z,6.56
2019-02-19T23:22:48.538Z,6.45
2019-02-19T23:25:16.964Z,6.49
2019-02-19T23:27:45.533Z,6.37
2019-02-19T23:30:14.025Z,6.41
2019-02-19T23:32:42.743Z,6.29
2019-02-19T23:35:24.936Z,6.29
2019-02-19T23:37:53.480Z,6.23
2019-02-19T23:40:21.995Z,6.24
2019-02-19T23:42:50.712Z,6.28
2019-02-19T23:45:19.082Z,6.28
2019-02-19T23:47:47.499Z,6.28
2019-02-19T23:50:16.017Z,6.27
2019-02-19T23:52:44.661Z,6.27
2019-02-19T23:55:13.104Z,6.35
2019-02-19T23:57:41.642Z,6.41
